KDYR  Dyersburg Regional Airport

Add Bookmark

Dyersburg, Tennessee, United States

Status Useage
Operational Public
Latitude Longitude
35° 59' 52" N 89° 24' 23" W
35.997972 -89.406583
Local (DST -5) UTC (GMT -6)
Oct 22, 2014 04:37 Oct 22, 2014 21:37
Sunrise-Sunset Local UTC
Begin Civil Twilight 06:44 11:44
Sunrise 07:10 12:10
Sunset 06:13 23:13
End Civil Twilight 06:39 23:39

Current Weather

METAR Observed VFR
KDYR 222115Z 04006KT 10SM CLR 18/03 A3021 Wed, Oct 22, 2014 @ 21:15 UTC
(22 Minutes ago)
Visual Flight Rules
Wind Visibility Clouds Conditions
040° at 6 knots (7 mph) 10 statute miles
  • Clear skies
  • No significant weather
Temperatures Readings Precipitation
Current Temp 18°C (64°F)
Dewpoint 3°C (37°F)
Humidity 37%
Altimeter 30.21"Hg
Sea Level Pressure 1023mb
Field Elevation 337'
None Recorded

Additional weather within a 50nm radius of KDYR

Map ICAO Location
KHKA 20.9nm W (261°)
KBYH 26.2nm W (266°)
KUCY 30.7nm N (042°)
KMKL 33.8nm S (135°)
KNQA 44.6nm S (211°)

24 Hour Weather History

Loading
-

24 Hour Weather Graphs

Loading
-

CheckWX.com is intended as a tool to help pilots better visualize weather data. It is not intended as a substitute for an official weather briefing obtained from a Flight Service Station. CheckWX.com does not meet the FAA requirements for an official pre-flight weather briefing. Therefore, it's important that pilots still call and obtain an official FSS pre-flight weather briefing.